createdAt,value
2018-02-20T00:00:07.310Z,33.83
2018-02-20T00:02:35.599Z,34.42
2018-02-20T00:05:03.894Z,32.55
2018-02-20T00:07:32.958Z,33.83
2018-02-20T00:10:01.328Z,31.00
2018-02-20T00:12:29.663Z,37.90
2018-02-20T00:14:57.949Z,31.05
2018-02-20T00:17:26.272Z,39.38
2018-02-20T00:19:54.570Z,33.35
2018-02-20T00:22:23.660Z,35.67
2018-02-20T00:24:51.934Z,37.83
2018-02-20T00:27:21.026Z,36.83
2018-02-20T00:29:49.323Z,37.70
2018-02-20T00:32:18.401Z,32.10
2018-02-20T00:34:47.460Z,39.60
2018-02-20T00:37:15.781Z,36.95
2018-02-20T00:39:44.878Z,32.60
2018-02-20T00:42:13.924Z,36.60
2018-02-20T00:44:42.977Z,42.88
2018-02-20T00:47:11.274Z,36.75
2018-02-20T00:49:39.569Z,39.20
2018-02-20T00:52:07.866Z,35.72
2018-02-20T00:54:36.159Z,35.55
2018-02-20T00:57:05.221Z,41.53
2018-02-20T00:59:33.532Z,41.25
2018-02-20T01:02:02.614Z,35.65
2018-02-20T01:04:30.900Z,41.25
2018-02-20T01:06:59.234Z,40.25
2018-02-20T01:09:27.546Z,41.83
2018-02-20T01:11:55.844Z,37.30
2018-02-20T01:14:24.890Z,39.28
2018-02-20T01:16:53.230Z,35.25
2018-02-20T01:19:21.525Z,37.05
2018-02-20T01:21:49.831Z,36.25
2018-02-20T01:24:18.135Z,42.88
2018-02-20T01:26:47.190Z,31.80
2018-02-20T01:29:15.486Z,40.63
2018-02-20T01:31:43.803Z,35.83
2018-02-20T01:34:12.115Z,37.30
2018-02-20T01:36:40.433Z,39.55
2018-02-20T01:39:09.500Z,29.95
2018-02-20T01:41:37.792Z,32.90
2018-02-20T01:44:06.079Z,32.50
2018-02-20T01:46:34.378Z,35.40
2018-02-20T01:49:02.676Z,38.42
2018-02-20T01:51:30.981Z,33.67
2018-02-20T01:53:59.309Z,31.42
2018-02-20T01:56:27.626Z,38.72
2018-02-20T01:58:55.962Z,37.35
2018-02-20T02:01:25.039Z,36.83
2018-02-20T02:03:53.358Z,38.80
2018-02-20T02:06:21.660Z,32.22
2018-02-20T02:08:49.972Z,39.20
2018-02-20T02:11:19.027Z,39.03
2018-02-20T02:13:47.322Z,32.20
2018-02-20T02:16:15.634Z,35.15
2018-02-20T02:18:43.920Z,38.45
2018-02-20T02:21:12.254Z,38.45
2018-02-20T02:23:40.549Z,32.70
2018-02-20T02:26:09.622Z,34.05
2018-02-20T02:28:37.909Z,34.05
2018-02-20T02:31:06.229Z,31.40
2018-02-20T02:33:34.517Z,41.05
2018-02-20T02:36:02.813Z,33.92
2018-02-20T02:38:31.105Z,38.17
2018-02-20T02:40:59.388Z,37.67
2018-02-20T02:43:27.716Z,38.35
2018-02-20T02:45:55.988Z,35.90
2018-02-20T02:48:24.284Z,33.50
2018-02-20T02:50:52.590Z,35.10
2018-02-20T02:53:20.891Z,36.45
2018-02-20T02:55:49.961Z,33.50
2018-02-20T02:58:18.252Z,35.70
2018-02-20T03:00:47.303Z,37.20
2018-02-20T03:03:15.634Z,42.55
2018-02-20T03:05:44.687Z,37.70
2018-02-20T03:10:47.517Z,38.80
2018-02-20T03:13:16.583Z,44.13
2018-02-20T03:15:44.883Z,44.83
2018-02-20T03:18:14.032Z,39.05
2018-02-20T03:20:42.327Z,41.83
2018-02-20T03:23:10.620Z,35.10
2018-02-20T03:25:38.945Z,44.70
2018-02-20T03:28:07.229Z,42.03
2018-02-20T03:30:35.558Z,50.45
2018-02-20T03:33:03.839Z,40.92
2018-02-20T03:35:32.143Z,44.95
2018-02-20T03:38:00.450Z,49.30
2018-02-20T03:40:28.719Z,42.85
2018-02-20T03:42:57.019Z,43.78
2018-02-20T03:45:25.319Z,43.53
2018-02-20T03:47:53.628Z,46.03
2018-02-20T03:50:21.907Z,53.50
2018-02-20T03:52:50.220Z,51.50
2018-02-20T03:55:18.529Z,53.80
2018-02-20T03:57:47.584Z,54.13
2018-02-20T04:00:15.886Z,48.63
2018-02-20T04:02:44.226Z,48.15
2018-02-20T04:05:12.519Z,53.38
2018-02-20T04:07:40.820Z,40.92
2018-02-20T04:10:09.141Z,41.90
2018-02-20T04:12:37.465Z,36.35
2018-02-20T04:15:05.784Z,38.38
2018-02-20T04:17:34.848Z,30.77
2018-02-20T04:20:03.182Z,40.35
2018-02-20T04:22:31.495Z,34.95
2018-02-20T04:24:59.831Z,40.40
2018-02-20T04:27:28.147Z,40.88
2018-02-20T04:29:56.448Z,36.55
2018-02-20T04:32:24.742Z,36.85
2018-02-20T04:34:53.048Z,42.88
2018-02-20T04:37:21.386Z,40.00
2018-02-20T04:39:49.708Z,38.15
2018-02-20T04:42:18.017Z,39.28
2018-02-20T04:44:46.354Z,38.88
2018-02-20T04:47:14.707Z,42.95
2018-02-20T04:49:43.019Z,46.15
2018-02-20T04:52:11.326Z,42.70
2018-02-20T04:54:39.633Z,44.58
2018-02-20T04:57:07.981Z,42.58
2018-02-20T04:59:36.340Z,45.00
2018-02-20T05:02:04.647Z,43.67
2018-02-20T05:04:32.946Z,45.97
2018-02-20T05:07:01.247Z,49.70
2018-02-20T05:09:29.539Z,47.60
2018-02-20T05:11:57.890Z,46.55
2018-02-20T05:14:26.175Z,39.15
2018-02-20T05:16:54.473Z,46.08
2018-02-20T05:19:22.751Z,41.63
2018-02-20T05:21:51.070Z,42.88
2018-02-20T05:24:20.155Z,41.97
2018-02-20T05:26:49.231Z,46.92
2018-02-20T05:29:17.591Z,45.00
2018-02-20T05:31:45.925Z,42.88
2018-02-20T05:34:14.246Z,47.75
2018-02-20T05:36:42.621Z,50.75
2018-02-20T05:39:10.932Z,50.97
2018-02-20T05:41:39.251Z,51.50
2018-02-20T05:44:07.567Z,54.65
2018-02-20T05:46:35.890Z,51.58
2018-02-20T05:49:04.206Z,42.38
2018-02-20T05:51:32.512Z,47.80
2018-02-20T05:54:00.846Z,51.60
2018-02-20T05:56:29.117Z,55.28
2018-02-20T05:58:57.448Z,45.03
2018-02-20T06:01:26.547Z,49.55
2018-02-20T06:03:55.610Z,54.65
2018-02-20T06:06:23.923Z,53.58
2018-02-20T06:08:53.015Z,56.97
2018-02-20T06:11:22.127Z,46.35
2018-02-20T06:13:50.442Z,52.67
2018-02-20T06:16:18.767Z,49.47
2018-02-20T06:18:47.830Z,57.40
2018-02-20T06:21:16.135Z,58.97
2018-02-20T06:23:45.182Z,55.90
2018-02-20T06:26:13.466Z,49.28
2018-02-20T06:28:41.764Z,53.47
2018-02-20T06:31:10.065Z,57.95
2018-02-20T06:33:39.127Z,78.07
2018-02-20T06:36:07.473Z,60.00
2018-02-20T06:38:35.766Z,56.72
2018-02-20T06:41:04.056Z,58.00
2018-02-20T06:43:32.333Z,56.92
2018-02-20T06:46:00.617Z,54.80
2018-02-20T06:48:28.900Z,51.53
2018-02-20T06:50:57.214Z,64.72
2018-02-20T06:53:25.516Z,58.03
2018-02-20T06:55:53.841Z,62.35
2018-02-20T06:58:22.165Z,60.88
2018-02-20T07:00:50.458Z,63.97
2018-02-20T07:03:18.758Z,62.42
2018-02-20T07:05:47.084Z,52.78
2018-02-20T07:08:15.359Z,51.85
2018-02-20T07:10:43.690Z,56.53
2018-02-20T07:13:11.971Z,56.53
2018-02-20T07:15:41.050Z,41.90
2018-02-20T07:18:09.319Z,36.50
2018-02-20T07:20:37.627Z,41.55
2018-02-20T07:23:06.699Z,29.05
2018-02-20T07:25:35.012Z,37.22
2018-02-20T07:28:03.306Z,30.45
2018-02-20T07:30:31.616Z,28.38
2018-02-20T07:32:59.919Z,34.67
2018-02-20T07:35:28.204Z,30.98
2018-02-20T07:37:57.262Z,30.77
2018-02-20T07:40:25.583Z,37.67
2018-02-20T07:42:53.859Z,36.72
2018-02-20T07:45:22.288Z,32.95
2018-02-20T07:47:50.629Z,32.78
2018-02-20T07:50:18.935Z,31.87
2018-02-20T07:52:47.255Z,30.70
2018-02-20T07:55:15.582Z,32.08
2018-02-20T07:57:43.893Z,35.08
2018-02-20T08:00:12.225Z,30.35
2018-02-20T08:02:40.543Z,32.90
2018-02-20T08:05:08.839Z,30.37
2018-02-20T08:07:37.187Z,30.45
2018-02-20T08:10:05.490Z,43.08
2018-02-20T08:12:34.545Z,31.60
2018-02-20T08:15:02.823Z,36.03
2018-02-20T08:17:31.155Z,26.37
2018-02-20T08:19:59.408Z,32.75
2018-02-20T08:22:28.462Z,31.87
2018-02-20T08:24:56.753Z,34.03
2018-02-20T08:27:25.036Z,33.70
2018-02-20T08:29:53.318Z,33.55
2018-02-20T08:32:21.606Z,33.72
2018-02-20T08:34:50.672Z,37.55
2018-02-20T08:37:18.944Z,34.65
2018-02-20T08:39:47.219Z,32.42
2018-02-20T08:42:15.486Z,39.95
2018-02-20T08:44:43.763Z,37.75
2018-02-20T08:47:12.045Z,33.85
2018-02-20T08:49:40.350Z,36.75
2018-02-20T08:52:08.639Z,37.03
2018-02-20T08:54:37.700Z,35.33
2018-02-20T08:57:05.981Z,37.58
2018-02-20T08:59:34.290Z,37.90
2018-02-20T09:02:03.345Z,40.63
2018-02-20T09:04:31.640Z,37.83
2018-02-20T09:06:59.908Z,39.13
2018-02-20T09:09:28.227Z,45.38
2018-02-20T09:11:56.553Z,43.83
2018-02-20T09:14:24.870Z,47.70
2018-02-20T09:16:53.201Z,38.17
2018-02-20T09:19:21.510Z,39.33
2018-02-20T09:21:50.587Z,36.00
2018-02-20T09:24:18.917Z,43.50
2018-02-20T09:26:47.230Z,36.50
2018-02-20T09:29:15.516Z,37.13
2018-02-20T09:31:43.796Z,40.73
2018-02-20T09:34:12.068Z,44.83
2018-02-20T09:36:40.372Z,43.17
2018-02-20T09:39:08.653Z,43.73
2018-02-20T09:41:37.682Z,43.17
2018-02-20T09:44:05.942Z,41.57
2018-02-20T09:46:34.221Z,41.90
2018-02-20T09:49:02.509Z,43.30
2018-02-20T09:51:30.796Z,42.47
2018-02-20T09:53:59.071Z,48.40
2018-02-20T09:56:27.362Z,50.23
2018-02-20T09:58:56.473Z,46.50
2018-02-20T10:01:24.741Z,47.27
2018-02-20T10:03:53.037Z,42.70
2018-02-20T10:06:22.089Z,41.13
2018-02-20T10:08:50.388Z,46.77
2018-02-20T10:11:18.667Z,47.33
2018-02-20T10:13:46.979Z,46.17
2018-02-20T10:16:15.282Z,49.93
2018-02-20T10:18:43.555Z,42.60
2018-02-20T10:21:11.837Z,47.90
2018-02-20T10:23:40.113Z,49.50
2018-02-20T10:26:08.384Z,46.50
2018-02-20T10:28:36.676Z,47.73
2018-02-20T10:31:04.945Z,43.20
2018-02-20T10:33:33.240Z,48.80
2018-02-20T10:36:01.530Z,46.80
2018-02-20T10:38:29.793Z,43.60
2018-02-20T10:40:58.832Z,48.37
2018-02-20T10:43:27.874Z,52.70
2018-02-20T10:45:56.146Z,49.60
2018-02-20T10:48:24.425Z,49.90
2018-02-20T10:50:52.704Z,44.93
2018-02-20T10:53:20.994Z,45.23
2018-02-20T10:55:49.278Z,55.37
2018-02-20T10:58:17.571Z,63.33
2018-02-20T11:00:46.613Z,56.97
2018-02-20T11:03:14.902Z,61.70
2018-02-20T11:05:43.175Z,55.10
2018-02-20T11:08:11.445Z,58.00
2018-02-20T11:10:39.718Z,46.53
2018-02-20T11:13:07.983Z,50.33
2018-02-20T11:15:36.258Z,62.20
2018-02-20T11:18:04.522Z,52.60
2018-02-20T11:20:32.799Z,46.20
2018-02-20T11:23:01.075Z,51.70
2018-02-20T11:25:29.357Z,51.27
2018-02-20T11:27:57.646Z,55.80
2018-02-20T11:30:25.922Z,53.87
2018-02-20T11:32:54.198Z,50.83
2018-02-20T11:35:22.469Z,59.53
2018-02-20T11:37:50.736Z,45.13
2018-02-20T11:40:18.998Z,46.87
2018-02-20T11:42:47.250Z,53.20
2018-02-20T11:45:15.540Z,47.60
2018-02-20T11:47:43.800Z,56.67
2018-02-20T11:50:12.832Z,51.13
2018-02-20T11:52:41.112Z,50.50
2018-02-20T11:55:09.370Z,52.30
2018-02-20T11:57:37.650Z,55.50
2018-02-20T12:00:05.920Z,55.73
2018-02-20T12:02:34.195Z,51.03
2018-02-20T12:05:02.473Z,53.63
2018-02-20T12:07:30.744Z,60.57
2018-02-20T12:09:59.059Z,52.63
2018-02-20T12:12:27.342Z,40.87
2018-02-20T12:14:55.633Z,45.77
2018-02-20T12:17:23.924Z,45.07
2018-02-20T12:19:52.199Z,48.17
2018-02-20T12:22:20.484Z,50.57
2018-02-20T12:24:49.512Z,61.83
2018-02-20T12:27:17.788Z,50.73
2018-02-20T12:29:46.074Z,48.57
2018-02-20T12:32:14.334Z,53.40
2018-02-20T12:34:42.614Z,53.50
2018-02-20T12:37:10.875Z,50.73
2018-02-20T12:39:39.154Z,52.70
2018-02-20T12:42:07.425Z,43.40
2018-02-20T12:44:36.454Z,50.10
2018-02-20T12:47:04.719Z,51.00
2018-02-20T12:49:32.993Z,47.57
2018-02-20T12:52:01.275Z,52.53
2018-02-20T12:54:29.557Z,45.33
2018-02-20T12:56:57.832Z,52.10
2018-02-20T12:59:26.097Z,55.63
2018-02-20T13:01:54.363Z,68.73
2018-02-20T13:04:22.634Z,53.67
2018-02-20T13:06:50.909Z,49.60
2018-02-20T13:09:19.187Z,52.67
2018-02-20T13:11:47.471Z,54.70
2018-02-20T13:14:15.745Z,49.00
2018-02-20T13:16:44.011Z,60.80
2018-02-20T13:19:12.280Z,61.80
2018-02-20T13:21:40.554Z,49.77
2018-02-20T13:24:08.850Z,54.07
2018-02-20T13:26:37.127Z,51.47
2018-02-20T13:29:05.386Z,59.67
2018-02-20T13:31:33.658Z,56.13
2018-02-20T13:34:01.935Z,57.60
2018-02-20T13:36:30.212Z,54.13
2018-02-20T13:38:58.470Z,56.37
2018-02-20T13:41:27.514Z,55.10
2018-02-20T13:43:55.772Z,57.60
2018-02-20T13:46:24.047Z,60.30
2018-02-20T13:48:52.310Z,54.97
2018-02-20T13:51:20.589Z,57.43
2018-02-20T13:53:48.862Z,53.37
2018-02-20T13:56:17.173Z,59.00
2018-02-20T13:58:45.448Z,53.67
2018-02-20T14:01:13.716Z,59.33
2018-02-20T14:03:41.997Z,58.93
2018-02-20T14:06:10.265Z,57.70
2018-02-20T14:08:38.548Z,64.03
2018-02-20T14:11:06.825Z,60.70
2018-02-20T14:13:35.101Z,55.20
2018-02-20T14:16:03.371Z,53.73
2018-02-20T14:18:31.644Z,64.47
2018-02-20T14:20:59.903Z,58.70
2018-02-20T14:23:28.183Z,58.27
2018-02-20T14:25:56.453Z,64.67
2018-02-20T14:28:24.734Z,62.93
2018-02-20T14:30:53.007Z,58.13
2018-02-20T14:33:21.284Z,63.70
2018-02-20T14:35:49.550Z,60.10
2018-02-20T14:38:17.834Z,58.80
2018-02-20T14:40:46.082Z,63.77
2018-02-20T14:43:15.128Z,59.50
2018-02-20T14:45:43.389Z,55.77
2018-02-20T14:48:11.672Z,71.20
2018-02-20T14:50:39.937Z,62.20
2018-02-20T14:53:09.002Z,58.83
2018-02-20T14:55:38.048Z,58.65
2018-02-20T14:58:07.131Z,57.87
2018-02-20T15:00:35.415Z,58.60
2018-02-20T15:03:03.681Z,60.03
2018-02-20T15:05:31.956Z,60.20
2018-02-20T15:08:00.220Z,60.33
2018-02-20T15:10:28.497Z,56.30
2018-02-20T15:12:56.814Z,64.43
2018-02-20T15:15:25.100Z,60.50
2018-02-20T15:17:53.376Z,61.22
2018-02-20T15:20:21.665Z,62.53
2018-02-20T15:22:50.703Z,61.88
2018-02-20T15:25:18.983Z,58.30
2018-02-20T15:27:47.238Z,61.10
2018-02-20T15:30:15.523Z,58.70
2018-02-20T15:32:43.794Z,55.67
2018-02-20T15:35:12.081Z,51.67
2018-02-20T15:37:40.342Z,51.80
2018-02-20T15:40:08.626Z,57.30
2018-02-20T15:42:36.898Z,66.03
2018-02-20T15:45:05.219Z,71.82
2018-02-20T15:47:33.493Z,64.40
2018-02-20T15:50:01.780Z,63.90
2018-02-20T15:52:30.047Z,59.40
2018-02-20T15:54:58.322Z,64.35
2018-02-20T15:57:26.599Z,48.40
2018-02-20T15:59:54.890Z,53.58
2018-02-20T16:02:23.148Z,58.00
2018-02-20T16:04:51.435Z,48.30
2018-02-20T16:07:19.721Z,55.35
2018-02-20T16:09:47.996Z,58.40
2018-02-20T16:12:16.315Z,56.87
2018-02-20T16:14:44.591Z,50.65
2018-02-20T16:17:12.888Z,60.95
2018-02-20T16:19:41.178Z,55.40
2018-02-20T16:22:09.475Z,48.05
2018-02-20T16:24:37.762Z,54.47
2018-02-20T16:27:06.812Z,45.40
2018-02-20T16:29:35.099Z,57.80
2018-02-20T16:32:03.401Z,62.97
2018-02-20T16:34:31.678Z,60.88
2018-02-20T16:36:59.975Z,57.97
2018-02-20T16:39:29.014Z,58.72
2018-02-20T16:41:57.293Z,58.25
2018-02-20T16:44:25.604Z,57.65
2018-02-20T16:46:54.655Z,60.67
2018-02-20T16:49:22.945Z,67.60
2018-02-20T16:51:51.232Z,66.68
2018-02-20T16:54:19.540Z,70.82
2018-02-20T16:56:48.606Z,61.03
2018-02-20T16:59:16.905Z,58.42
2018-02-20T17:01:45.944Z,68.15
2018-02-20T17:04:14.222Z,58.55
2018-02-20T17:06:42.509Z,61.15
2018-02-20T17:09:10.793Z,56.88
2018-02-20T17:11:39.073Z,56.92
2018-02-20T17:14:07.359Z,67.03
2018-02-20T17:16:35.639Z,58.63
2018-02-20T17:19:03.931Z,67.15
2018-02-20T17:21:33.047Z,67.30
2018-02-20T17:24:01.273Z,60.72
2018-02-20T17:26:29.554Z,68.50
2018-02-20T17:28:57.853Z,61.70
2018-02-20T17:31:26.903Z,64.60
2018-02-20T17:33:55.195Z,62.33
2018-02-20T17:36:23.489Z,64.70
2018-02-20T17:38:51.778Z,65.55
2018-02-20T17:41:20.816Z,68.20
2018-02-20T17:43:49.187Z,57.60
2018-02-20T17:46:17.482Z,65.82
2018-02-20T17:48:45.754Z,75.12
2018-02-20T17:51:14.036Z,69.43
2018-02-20T17:53:42.310Z,66.80
2018-02-20T17:56:10.623Z,72.55
2018-02-20T17:58:38.887Z,67.15
2018-02-20T18:01:07.177Z,72.60
2018-02-20T18:03:36.225Z,66.90
2018-02-20T18:06:04.523Z,84.32
2018-02-20T18:08:32.816Z,67.35
2018-02-20T18:11:01.886Z,70.57
2018-02-20T18:13:30.181Z,71.37
2018-02-20T18:15:58.490Z,81.87
2018-02-20T18:18:26.784Z,80.70
2018-02-20T18:20:55.079Z,71.30
2018-02-20T18:23:23.378Z,74.62
2018-02-20T18:25:51.678Z,75.22
2018-02-20T18:28:20.735Z,74.25
2018-02-20T18:30:49.022Z,69.22
2018-02-20T18:33:17.331Z,76.12
2018-02-20T18:35:46.373Z,67.40
2018-02-20T18:38:14.653Z,75.65
2018-02-20T18:40:42.926Z,69.68
2018-02-20T18:43:11.197Z,64.05
2018-02-20T18:45:39.470Z,65.70
2018-02-20T18:48:07.769Z,72.03
2018-02-20T18:50:36.047Z,62.42
2018-02-20T18:53:04.333Z,62.62
2018-02-20T18:55:32.629Z,68.87
2018-02-20T18:58:01.683Z,66.78
2018-02-20T19:00:29.956Z,71.50
2018-02-20T19:02:58.237Z,59.40
2018-02-20T19:05:26.513Z,64.53
2018-02-20T19:07:54.799Z,59.65
2018-02-20T19:10:23.085Z,66.55
2018-02-20T19:12:51.368Z,60.88
2018-02-20T19:15:19.641Z,59.50
2018-02-20T19:17:47.919Z,63.20
2018-02-20T19:20:16.217Z,64.70
2018-02-20T19:22:45.271Z,61.17
2018-02-20T19:25:13.553Z,59.65
2018-02-20T19:27:41.852Z,63.70
2018-02-20T19:30:10.897Z,72.62
2018-02-20T19:32:39.213Z,59.63
2018-02-20T19:35:07.476Z,59.50
2018-02-20T19:37:35.772Z,70.90
2018-02-20T19:40:04.071Z,65.97
2018-02-20T19:42:32.319Z,61.78
2018-02-20T19:45:00.595Z,61.22
2018-02-20T19:47:28.887Z,68.10
2018-02-20T19:49:57.943Z,68.55
2018-02-20T19:52:26.216Z,54.78
2018-02-20T19:54:54.520Z,67.20
2018-02-20T19:57:22.799Z,61.45
2018-02-20T19:59:51.091Z,62.13
2018-02-20T20:02:20.129Z,66.43
2018-02-20T20:04:48.426Z,63.22
2018-02-20T20:07:16.723Z,62.88
2018-02-20T20:09:45.766Z,69.22
2018-02-20T20:12:14.824Z,63.58
2018-02-20T20:14:43.105Z,64.25
2018-02-20T20:17:12.143Z,64.80
2018-02-20T20:19:40.431Z,63.13
2018-02-20T20:22:08.721Z,66.10
2018-02-20T20:24:37.830Z,70.62
2018-02-20T20:27:06.058Z,69.97
2018-02-20T20:29:34.346Z,70.90
2018-02-20T20:32:02.631Z,69.18
2018-02-20T20:34:30.918Z,67.25
2018-02-20T20:36:59.209Z,74.82
2018-02-20T20:39:28.237Z,76.45
2018-02-20T20:41:56.528Z,80.75
2018-02-20T20:44:24.799Z,71.53
2018-02-20T20:46:53.081Z,70.78
2018-02-20T20:49:21.364Z,78.07
2018-02-20T20:51:49.651Z,69.95
2018-02-20T20:54:17.947Z,66.60
2018-02-20T20:56:46.265Z,75.45
2018-02-20T20:59:14.557Z,72.78
2018-02-20T21:01:42.838Z,71.87
2018-02-20T21:04:11.111Z,67.62
2018-02-20T21:06:39.393Z,74.28
2018-02-20T21:09:07.659Z,68.65
2018-02-20T21:11:35.950Z,68.10
2018-02-20T21:14:04.224Z,80.65
2018-02-20T21:16:32.516Z,66.05
2018-02-20T21:19:00.807Z,67.93
2018-02-20T21:21:29.128Z,63.58
2018-02-20T21:23:57.353Z,68.80
2018-02-20T21:26:25.661Z,66.72
2018-02-20T21:28:53.945Z,75.53
2018-02-20T21:31:22.225Z,68.68
2018-02-20T21:33:50.525Z,67.35
2018-02-20T21:36:18.803Z,69.15
2018-02-20T21:38:47.098Z,76.53
2018-02-20T21:41:15.366Z,75.80
2018-02-20T21:43:43.682Z,79.43
2018-02-20T21:46:11.950Z,67.30
2018-02-20T21:48:40.269Z,63.25
2018-02-20T21:51:08.543Z,65.68
2018-02-20T21:53:36.882Z,67.30
2018-02-20T21:56:05.183Z,70.47
2018-02-20T21:58:34.247Z,69.32
2018-02-20T22:01:02.614Z,74.55
2018-02-20T22:03:30.914Z,80.20
2018-02-20T22:05:59.984Z,66.47
2018-02-20T22:08:29.806Z,74.95
2018-02-20T22:10:58.107Z,74.55
2018-02-20T22:13:27.185Z,76.75
2018-02-20T22:15:55.561Z,76.32
2018-02-20T22:18:23.883Z,74.93
2018-02-20T22:20:52.287Z,67.00
2018-02-20T22:23:20.630Z,74.55
2018-02-20T22:25:49.000Z,79.87
2018-02-20T22:28:17.303Z,75.97
2018-02-20T22:30:45.626Z,77.50
2018-02-20T22:33:13.983Z,71.50
2018-02-20T22:35:42.314Z,74.12
2018-02-20T22:38:10.606Z,84.20
2018-02-20T22:40:38.966Z,83.32
2018-02-20T22:43:07.277Z,77.40
2018-02-20T22:45:35.593Z,77.22
2018-02-20T22:48:03.936Z,78.95
2018-02-20T22:50:32.243Z,84.57
2018-02-20T22:53:00.606Z,89.40
2018-02-20T22:55:28.936Z,84.57
2018-02-20T22:57:57.331Z,85.10
2018-02-20T23:00:25.639Z,92.72
2018-02-20T23:02:53.973Z,84.22
2018-02-20T23:05:22.279Z,89.90
2018-02-20T23:07:50.563Z,94.82
2018-02-20T23:10:18.958Z,98.35
2018-02-20T23:12:47.260Z,92.70
2018-02-20T23:15:16.376Z,91.20
2018-02-20T23:17:44.677Z,93.20
2018-02-20T23:20:12.991Z,95.68
2018-02-20T23:22:42.091Z,101.32
2018-02-20T23:25:11.180Z,94.65
2018-02-20T23:27:39.519Z,95.95
2018-02-20T23:30:07.823Z,103.12
2018-02-20T23:32:36.155Z,100.90
2018-02-20T23:35:04.495Z,108.68
2018-02-20T23:37:33.649Z,105.75
2018-02-20T23:40:02.695Z,102.55
2018-02-20T23:42:31.968Z,107.90
2018-02-20T23:45:00.379Z,104.57
2018-02-20T23:47:28.795Z,98.57
2018-02-20T23:49:57.131Z,97.10
2018-02-20T23:52:26.261Z,107.12
2018-02-20T23:54:54.582Z,107.30
2018-02-20T23:57:22.883Z,122.60
2018-02-20T23:59:51.149Z,96.82
